sensor_id;sensor_type;location;lat;lon;timestamp;temperature;humidity
569;DHT22;269;48.884;9.192;2022-11-20T00:01:33;5.70;99.90
569;DHT22;269;48.884;9.192;2022-11-20T00:04:01;5.70;99.90
569;DHT22;269;48.884;9.192;2022-11-20T00:06:30;5.60;99.90
569;DHT22;269;48.884;9.192;2022-11-20T00:08:59;5.60;99.90
569;DHT22;269;48.884;9.192;2022-11-20T00:11:29;5.60;99.90
569;DHT22;269;48.884;9.192;2022-11-20T00:13:59;5.60;99.90
569;DHT22;269;48.884;9.192;2022-11-20T00:16:28;5.50;99.90
569;DHT22;269;48.884;9.192;2022-11-20T00:18:56;5.40;99.90
569;DHT22;269;48.884;9.192;2022-11-20T00:21:25;5.40;99.90
569;DHT22;269;48.884;9.192;2022-11-20T00:23:56;5.40;99.90
569;DHT22;269;48.884;9.192;2022-11-20T00:26:25;5.40;99.90
569;DHT22;269;48.884;9.192;2022-11-20T00:28:54;5.30;99.90
569;DHT22;269;48.884;9.192;2022-11-20T00:31:22;5.30;99.90
569;DHT22;269;48.884;9.192;2022-11-20T00:33:49;5.30;99.90
569;DHT22;269;48.884;9.192;2022-11-20T00:36:18;5.30;99.90
569;DHT22;269;48.884;9.192;2022-11-20T00:38:45;5.40;99.90
569;DHT22;269;48.884;9.192;2022-11-20T00:41:15;5.40;99.90
569;DHT22;269;48.884;9.192;2022-11-20T00:43:42;5.50;99.90
569;DHT22;269;48.884;9.192;2022-11-20T00:46:13;5.60;99.90
569;DHT22;269;48.884;9.192;2022-11-20T00:48:41;5.60;99.90
569;DHT22;269;48.884;9.192;2022-11-20T00:51:09;5.70;99.90
569;DHT22;269;48.884;9.192;2022-11-20T00:53:37;5.70;99.90
569;DHT22;269;48.884;9.192;2022-11-20T00:56:09;5.70;99.90
569;DHT22;269;48.884;9.192;2022-11-20T00:58:39;5.80;99.90
569;DHT22;269;48.884;9.192;2022-11-20T01:01:08;5.70;99.90
569;DHT22;269;48.884;9.192;2022-11-20T01:03:38;5.70;99.90
569;DHT22;269;48.884;9.192;2022-11-20T01:06:07;5.70;99.90
569;DHT22;269;48.884;9.192;2022-11-20T01:08:36;5.70;99.90
569;DHT22;269;48.884;9.192;2022-11-20T01:11:05;5.60;99.90
569;DHT22;269;48.884;9.192;2022-11-20T01:13:33;5.60;99.90
569;DHT22;269;48.884;9.192;2022-11-20T01:16:11;5.50;99.90
569;DHT22;269;48.884;9.192;2022-11-20T01:18:40;5.50;99.90
569;DHT22;269;48.884;9.192;2022-11-20T01:21:09;5.60;99.90
569;DHT22;269;48.884;9.192;2022-11-20T01:23:38;5.60;99.90
569;DHT22;269;48.884;9.192;2022-11-20T01:26:07;5.60;99.90
569;DHT22;269;48.884;9.192;2022-11-20T01:28:36;5.60;99.90
569;DHT22;269;48.884;9.192;2022-11-20T01:31:12;5.60;99.90
569;DHT22;269;48.884;9.192;2022-11-20T01:33:40;5.60;99.90
569;DHT22;269;48.884;9.192;2022-11-20T01:36:08;5.50;99.90
569;DHT22;269;48.884;9.192;2022-11-20T01:38:36;5.40;99.90
569;DHT22;269;48.884;9.192;2022-11-20T01:41:03;5.20;99.90
569;DHT22;269;48.884;9.192;2022-11-20T01:43:31;5.10;99.90
569;DHT22;269;48.884;9.192;2022-11-20T01:46:00;5.10;99.90
569;DHT22;269;48.884;9.192;2022-11-20T01:48:34;5.00;99.90
569;DHT22;269;48.884;9.192;2022-11-20T01:51:04;5.00;99.90
569;DHT22;269;48.884;9.192;2022-11-20T01:53:34;5.00;99.90
569;DHT22;269;48.884;9.192;2022-11-20T01:56:06;5.00;99.90
569;DHT22;269;48.884;9.192;2022-11-20T01:58:38;5.00;99.90
569;DHT22;269;48.884;9.192;2022-11-20T02:01:07;4.90;99.90
569;DHT22;269;48.884;9.192;2022-11-20T02:03:37;5.00;99.90
569;DHT22;269;48.884;9.192;2022-11-20T02:06:08;5.00;99.90
569;DHT22;269;48.884;9.192;2022-11-20T02:08:38;5.00;99.90
569;DHT22;269;48.884;9.192;2022-11-20T02:11:05;5.00;99.90
569;DHT22;269;48.884;9.192;2022-11-20T02:13:34;5.00;99.90
569;DHT22;269;48.884;9.192;2022-11-20T02:16:19;5.00;99.90
569;DHT22;269;48.884;9.192;2022-11-20T02:18:48;5.00;99.90
569;DHT22;269;48.884;9.192;2022-11-20T02:21:28;5.00;99.90
569;DHT22;269;48.884;9.192;2022-11-20T02:24:09;5.10;99.90
569;DHT22;269;48.884;9.192;2022-11-20T02:26:42;5.10;99.90
569;DHT22;269;48.884;9.192;2022-11-20T02:29:10;5.10;99.90
569;DHT22;269;48.884;9.192;2022-11-20T02:31:39;5.20;99.90
569;DHT22;269;48.884;9.192;2022-11-20T02:34:09;5.30;99.90
569;DHT22;269;48.884;9.192;2022-11-20T02:36:39;5.30;99.90
569;DHT22;269;48.884;9.192;2022-11-20T02:39:11;5.30;99.90
569;DHT22;269;48.884;9.192;2022-11-20T02:41:42;5.30;99.90
569;DHT22;269;48.884;9.192;2022-11-20T02:44:09;5.30;99.90
569;DHT22;269;48.884;9.192;2022-11-20T02:46:37;5.20;99.90
569;DHT22;269;48.884;9.192;2022-11-20T02:49:04;5.20;99.90
569;DHT22;269;48.884;9.192;2022-11-20T02:51:33;5.30;99.90
569;DHT22;269;48.884;9.192;2022-11-20T02:54:00;5.30;99.90
569;DHT22;269;48.884;9.192;2022-11-20T02:56:28;5.30;99.90
569;DHT22;269;48.884;9.192;2022-11-20T02:58:55;5.30;99.90
569;DHT22;269;48.884;9.192;2022-11-20T03:01:22;5.40;99.90
569;DHT22;269;48.884;9.192;2022-11-20T03:03:50;5.40;99.90
569;DHT22;269;48.884;9.192;2022-11-20T03:06:18;5.40;99.90
569;DHT22;269;48.884;9.192;2022-11-20T03:08:45;5.40;99.90
569;DHT22;269;48.884;9.192;2022-11-20T03:11:13;5.40;99.90
569;DHT22;269;48.884;9.192;2022-11-20T03:13:42;5.40;99.90
569;DHT22;269;48.884;9.192;2022-11-20T03:16:10;5.40;99.90
569;DHT22;269;48.884;9.192;2022-11-20T03:18:38;5.50;99.90
569;DHT22;269;48.884;9.192;2022-11-20T03:21:05;5.50;99.90
569;DHT22;269;48.884;9.192;2022-11-20T03:23:33;5.60;99.90
569;DHT22;269;48.884;9.192;2022-11-20T03:26:11;5.60;99.90
569;DHT22;269;48.884;9.192;2022-11-20T03:28:42;5.60;99.90
569;DHT22;269;48.884;9.192;2022-11-20T03:31:12;5.60;99.90
569;DHT22;269;48.884;9.192;2022-11-20T03:33:41;5.60;99.90
569;DHT22;269;48.884;9.192;2022-11-20T03:36:10;5.60;99.90
569;DHT22;269;48.884;9.192;2022-11-20T03:38:39;5.60;99.90
569;DHT22;269;48.884;9.192;2022-11-20T03:41:08;5.60;99.90
569;DHT22;269;48.884;9.192;2022-11-20T03:43:35;5.60;99.90
569;DHT22;269;48.884;9.192;2022-11-20T03:46:05;5.60;99.90
569;DHT22;269;48.884;9.192;2022-11-20T03:48:32;5.60;99.90
569;DHT22;269;48.884;9.192;2022-11-20T03:51:07;5.50;99.90
569;DHT22;269;48.884;9.192;2022-11-20T03:53:35;5.60;99.90
569;DHT22;269;48.884;9.192;2022-11-20T03:56:02;5.60;99.90
569;DHT22;269;48.884;9.192;2022-11-20T03:58:30;5.60;99.90
569;DHT22;269;48.884;9.192;2022-11-20T04:00:57;5.60;99.90
569;DHT22;269;48.884;9.192;2022-11-20T04:03:25;5.60;99.90
569;DHT22;269;48.884;9.192;2022-11-20T04:05:52;5.60;99.90
569;DHT22;269;48.884;9.192;2022-11-20T04:08:19;5.60;99.90
569;DHT22;269;48.884;9.192;2022-11-20T04:10:46;5.70;99.90
569;DHT22;269;48.884;9.192;2022-11-20T04:13:13;5.70;99.90
569;DHT22;269;48.884;9.192;2022-11-20T04:15:41;5.60;99.90
569;DHT22;269;48.884;9.192;2022-11-20T04:18:08;5.60;99.90
569;DHT22;269;48.884;9.192;2022-11-20T04:20:37;5.60;99.90
569;DHT22;269;48.884;9.192;2022-11-20T04:23:06;5.70;99.90
569;DHT22;269;48.884;9.192;2022-11-20T04:25:33;5.70;99.90
569;DHT22;269;48.884;9.192;2022-11-20T04:27:59;5.70;99.90
569;DHT22;269;48.884;9.192;2022-11-20T04:30:27;5.60;99.90
569;DHT22;269;48.884;9.192;2022-11-20T04:32:54;5.60;99.90
569;DHT22;269;48.884;9.192;2022-11-20T04:35:21;5.60;99.90
569;DHT22;269;48.884;9.192;2022-11-20T04:37:51;5.60;99.90
569;DHT22;269;48.884;9.192;2022-11-20T04:40:18;5.60;99.90
569;DHT22;269;48.884;9.192;2022-11-20T04:42:45;5.70;99.90
569;DHT22;269;48.884;9.192;2022-11-20T04:45:13;5.70;99.90
569;DHT22;269;48.884;9.192;2022-11-20T04:47:40;5.70;99.90
569;DHT22;269;48.884;9.192;2022-11-20T04:50:08;5.70;99.90
569;DHT22;269;48.884;9.192;2022-11-20T04:52:35;5.70;99.90
569;DHT22;269;48.884;9.192;2022-11-20T04:55:04;5.70;99.90
569;DHT22;269;48.884;9.192;2022-11-20T04:57:32;5.70;99.90
569;DHT22;269;48.884;9.192;2022-11-20T04:59:59;5.70;99.90
569;DHT22;269;48.884;9.192;2022-11-20T05:02:26;5.70;99.90
569;DHT22;269;48.884;9.192;2022-11-20T05:04:53;5.70;99.90
569;DHT22;269;48.884;9.192;2022-11-20T05:07:20;5.70;99.90
569;DHT22;269;48.884;9.192;2022-11-20T05:09:48;5.80;99.90
569;DHT22;269;48.884;9.192;2022-11-20T05:12:16;5.70;99.90
569;DHT22;269;48.884;9.192;2022-11-20T05:14:45;5.70;99.90
569;DHT22;269;48.884;9.192;2022-11-20T05:17:13;5.70;99.90
569;DHT22;269;48.884;9.192;2022-11-20T05:19:40;5.70;99.90
569;DHT22;269;48.884;9.192;2022-11-20T05:22:07;5.60;99.90
569;DHT22;269;48.884;9.192;2022-11-20T05:24:34;5.60;99.90
569;DHT22;269;48.884;9.192;2022-11-20T05:27:01;5.60;99.90
569;DHT22;269;48.884;9.192;2022-11-20T05:29:30;5.60;99.90
569;DHT22;269;48.884;9.192;2022-11-20T05:31:58;5.70;99.90
569;DHT22;269;48.884;9.192;2022-11-20T05:34:24;5.70;99.90
569;DHT22;269;48.884;9.192;2022-11-20T05:36:52;5.70;99.90
569;DHT22;269;48.884;9.192;2022-11-20T05:39:20;5.70;99.90
569;DHT22;269;48.884;9.192;2022-11-20T05:41:47;5.60;99.90
569;DHT22;269;48.884;9.192;2022-11-20T05:44:36;5.60;99.90
569;DHT22;269;48.884;9.192;2022-11-20T05:47:04;5.60;99.90
569;DHT22;269;48.884;9.192;2022-11-20T05:49:31;5.60;99.90
569;DHT22;269;48.884;9.192;2022-11-20T05:51:58;5.60;99.90
569;DHT22;269;48.884;9.192;2022-11-20T05:54:25;5.60;99.90
569;DHT22;269;48.884;9.192;2022-11-20T05:56:53;5.70;99.90
569;DHT22;269;48.884;9.192;2022-11-20T05:59:20;5.70;99.90
569;DHT22;269;48.884;9.192;2022-11-20T06:01:48;5.70;99.90
569;DHT22;269;48.884;9.192;2022-11-20T06:04:15;5.80;99.90
569;DHT22;269;48.884;9.192;2022-11-20T06:06:43;5.80;99.90
569;DHT22;269;48.884;9.192;2022-11-20T06:09:10;5.80;99.90
569;DHT22;269;48.884;9.192;2022-11-20T06:11:37;5.80;99.90
569;DHT22;269;48.884;9.192;2022-11-20T06:14:04;5.90;99.90
569;DHT22;269;48.884;9.192;2022-11-20T06:16:31;5.90;99.90
569;DHT22;269;48.884;9.192;2022-11-20T06:19:00;5.90;99.90
569;DHT22;269;48.884;9.192;2022-11-20T06:21:27;5.90;99.90
569;DHT22;269;48.884;9.192;2022-11-20T06:23:55;6.00;99.90
569;DHT22;269;48.884;9.192;2022-11-20T06:26:24;6.00;99.90
569;DHT22;269;48.884;9.192;2022-11-20T06:28:52;6.10;99.90
569;DHT22;269;48.884;9.192;2022-11-20T06:31:21;6.00;99.90
569;DHT22;269;48.884;9.192;2022-11-20T06:33:49;6.10;99.90
569;DHT22;269;48.884;9.192;2022-11-20T06:36:20;6.10;99.90
569;DHT22;269;48.884;9.192;2022-11-20T06:38:47;6.20;99.90
569;DHT22;269;48.884;9.192;2022-11-20T06:41:16;6.20;99.90
569;DHT22;269;48.884;9.192;2022-11-20T06:43:44;6.20;99.90
569;DHT22;269;48.884;9.192;2022-11-20T06:46:12;6.20;99.90
569;DHT22;269;48.884;9.192;2022-11-20T06:48:40;6.30;99.90
569;DHT22;269;48.884;9.192;2022-11-20T06:51:07;6.30;99.90
569;DHT22;269;48.884;9.192;2022-11-20T06:53:36;6.30;99.90
569;DHT22;269;48.884;9.192;2022-11-20T06:56:04;6.30;99.90
569;DHT22;269;48.884;9.192;2022-11-20T06:58:34;6.30;99.90
569;DHT22;269;48.884;9.192;2022-11-20T07:01:04;6.30;99.90
569;DHT22;269;48.884;9.192;2022-11-20T07:03:31;6.30;99.90
569;DHT22;269;48.884;9.192;2022-11-20T07:06:00;6.30;99.90
569;DHT22;269;48.884;9.192;2022-11-20T07:08:27;6.30;99.90
569;DHT22;269;48.884;9.192;2022-11-20T07:10:59;6.40;99.90
569;DHT22;269;48.884;9.192;2022-11-20T07:13:26;6.40;99.90
569;DHT22;269;48.884;9.192;2022-11-20T07:15:53;6.40;99.90
569;DHT22;269;48.884;9.192;2022-11-20T07:18:21;6.40;99.90
569;DHT22;269;48.884;9.192;2022-11-20T07:20:48;6.40;99.90
569;DHT22;269;48.884;9.192;2022-11-20T07:23:15;6.40;99.90
569;DHT22;269;48.884;9.192;2022-11-20T07:25:42;6.50;99.90
569;DHT22;269;48.884;9.192;2022-11-20T07:28:11;6.50;99.90
569;DHT22;269;48.884;9.192;2022-11-20T07:30:39;6.50;99.90
569;DHT22;269;48.884;9.192;2022-11-20T07:33:06;6.50;99.90
569;DHT22;269;48.884;9.192;2022-11-20T07:35:33;6.60;99.90
569;DHT22;269;48.884;9.192;2022-11-20T07:38:01;6.60;99.90
569;DHT22;269;48.884;9.192;2022-11-20T07:40:28;6.60;99.90
569;DHT22;269;48.884;9.192;2022-11-20T07:42:55;6.60;99.90
569;DHT22;269;48.884;9.192;2022-11-20T07:45:25;6.70;99.90
569;DHT22;269;48.884;9.192;2022-11-20T07:47:52;6.70;99.90
569;DHT22;269;48.884;9.192;2022-11-20T07:50:19;6.70;99.90
569;DHT22;269;48.884;9.192;2022-11-20T07:52:47;6.70;99.90
569;DHT22;269;48.884;9.192;2022-11-20T07:55:15;6.70;99.90
569;DHT22;269;48.884;9.192;2022-11-20T07:57:42;6.70;99.90
569;DHT22;269;48.884;9.192;2022-11-20T08:00:11;6.70;99.90
569;DHT22;269;48.884;9.192;2022-11-20T08:02:40;6.70;99.90
569;DHT22;269;48.884;9.192;2022-11-20T08:05:08;6.70;99.90
569;DHT22;269;48.884;9.192;2022-11-20T08:07:36;6.80;99.90
569;DHT22;269;48.884;9.192;2022-11-20T08:10:05;6.80;99.90
569;DHT22;269;48.884;9.192;2022-11-20T08:12:32;6.80;99.90
569;DHT22;269;48.884;9.192;2022-11-20T08:15:17;6.90;99.90
569;DHT22;269;48.884;9.192;2022-11-20T08:17:45;6.90;99.90
569;DHT22;269;48.884;9.192;2022-11-20T08:20:13;6.90;99.90
569;DHT22;269;48.884;9.192;2022-11-20T08:22:40;7.00;99.90
569;DHT22;269;48.884;9.192;2022-11-20T08:25:07;7.00;99.90
569;DHT22;269;48.884;9.192;2022-11-20T08:27:35;7.10;99.90
569;DHT22;269;48.884;9.192;2022-11-20T08:30:03;7.20;99.90
569;DHT22;269;48.884;9.192;2022-11-20T08:32:30;7.20;99.90
569;DHT22;269;48.884;9.192;2022-11-20T08:34:59;7.20;99.90
569;DHT22;269;48.884;9.192;2022-11-20T08:37:26;7.30;99.90
569;DHT22;269;48.884;9.192;2022-11-20T08:39:53;7.30;99.90
569;DHT22;269;48.884;9.192;2022-11-20T08:42:22;7.40;99.90
569;DHT22;269;48.884;9.192;2022-11-20T08:44:49;7.40;99.90
569;DHT22;269;48.884;9.192;2022-11-20T08:47:16;7.30;99.90
569;DHT22;269;48.884;9.192;2022-11-20T08:49:43;7.30;99.90
569;DHT22;269;48.884;9.192;2022-11-20T08:52:12;7.20;99.90
569;DHT22;269;48.884;9.192;2022-11-20T08:54:40;7.20;99.90
569;DHT22;269;48.884;9.192;2022-11-20T08:57:07;7.20;99.90
569;DHT22;269;48.884;9.192;2022-11-20T08:59:34;7.20;99.90
569;DHT22;269;48.884;9.192;2022-11-20T09:02:04;7.20;99.90
569;DHT22;269;48.884;9.192;2022-11-20T09:04:31;7.40;99.90
569;DHT22;269;48.884;9.192;2022-11-20T09:07:00;7.30;99.90
569;DHT22;269;48.884;9.192;2022-11-20T09:09:28;7.30;99.90
569;DHT22;269;48.884;9.192;2022-11-20T09:11:55;7.30;99.90
569;DHT22;269;48.884;9.192;2022-11-20T09:14:23;7.30;99.90
569;DHT22;269;48.884;9.192;2022-11-20T09:16:54;7.30;99.90
569;DHT22;269;48.884;9.192;2022-11-20T09:19:23;7.30;99.90
569;DHT22;269;48.884;9.192;2022-11-20T09:21:50;7.30;99.90
569;DHT22;269;48.884;9.192;2022-11-20T09:24:18;7.30;99.90
569;DHT22;269;48.884;9.192;2022-11-20T09:26:47;7.30;99.90
569;DHT22;269;48.884;9.192;2022-11-20T09:29:15;7.30;99.90
569;DHT22;269;48.884;9.192;2022-11-20T09:31:42;7.40;99.90
569;DHT22;269;48.884;9.192;2022-11-20T09:34:09;7.40;99.90
569;DHT22;269;48.884;9.192;2022-11-20T09:36:36;7.40;99.90
569;DHT22;269;48.884;9.192;2022-11-20T09:39:04;7.40;99.90
569;DHT22;269;48.884;9.192;2022-11-20T09:41:41;7.40;99.90
569;DHT22;269;48.884;9.192;2022-11-20T09:44:27;7.40;99.90
569;DHT22;269;48.884;9.192;2022-11-20T09:47:02;7.40;99.90
569;DHT22;269;48.884;9.192;2022-11-20T09:49:40;7.40;99.90
569;DHT22;269;48.884;9.192;2022-11-20T09:52:20;7.40;99.90
569;DHT22;269;48.884;9.192;2022-11-20T09:54:49;7.50;99.90
569;DHT22;269;48.884;9.192;2022-11-20T09:57:18;7.50;99.90
569;DHT22;269;48.884;9.192;2022-11-20T09:59:52;7.50;99.90
569;DHT22;269;48.884;9.192;2022-11-20T10:02:28;7.50;99.90
569;DHT22;269;48.884;9.192;2022-11-20T10:05:00;7.40;99.90
569;DHT22;269;48.884;9.192;2022-11-20T10:07:34;7.40;99.90
569;DHT22;269;48.884;9.192;2022-11-20T10:10:05;7.40;99.90
569;DHT22;269;48.884;9.192;2022-11-20T10:12:45;7.40;99.90
569;DHT22;269;48.884;9.192;2022-11-20T10:15:26;7.30;99.90
569;DHT22;269;48.884;9.192;2022-11-20T10:18:09;7.40;99.90
569;DHT22;269;48.884;9.192;2022-11-20T10:20:46;7.40;99.90
569;DHT22;269;48.884;9.192;2022-11-20T10:23:30;7.30;99.90
569;DHT22;269;48.884;9.192;2022-11-20T10:26:02;7.30;99.90
569;DHT22;269;48.884;9.192;2022-11-20T10:28:46;7.30;99.90
569;DHT22;269;48.884;9.192;2022-11-20T10:31:28;7.30;99.90
569;DHT22;269;48.884;9.192;2022-11-20T10:33:59;7.30;99.90
569;DHT22;269;48.884;9.192;2022-11-20T10:36:30;7.20;99.90
569;DHT22;269;48.884;9.192;2022-11-20T10:39:05;7.20;99.90
569;DHT22;269;48.884;9.192;2022-11-20T10:41:37;7.20;99.90
569;DHT22;269;48.884;9.192;2022-11-20T10:44:11;7.20;99.90
569;DHT22;269;48.884;9.192;2022-11-20T10:46:44;7.20;99.90
569;DHT22;269;48.884;9.192;2022-11-20T10:49:13;7.20;99.90
569;DHT22;269;48.884;9.192;2022-11-20T10:51:52;7.20;99.90
569;DHT22;269;48.884;9.192;2022-11-20T10:54:30;7.20;99.90
569;DHT22;269;48.884;9.192;2022-11-20T10:57:03;7.10;99.90
569;DHT22;269;48.884;9.192;2022-11-20T10:59:44;7.00;99.90
569;DHT22;269;48.884;9.192;2022-11-20T11:02:38;7.00;99.90
569;DHT22;269;48.884;9.192;2022-11-20T11:05:16;6.90;99.90
569;DHT22;269;48.884;9.192;2022-11-20T11:07:44;6.90;99.90
569;DHT22;269;48.884;9.192;2022-11-20T11:10:15;7.00;99.90
569;DHT22;269;48.884;9.192;2022-11-20T11:12:45;7.00;99.90
569;DHT22;269;48.884;9.192;2022-11-20T11:15:24;7.10;99.90
569;DHT22;269;48.884;9.192;2022-11-20T11:17:53;7.10;99.90
569;DHT22;269;48.884;9.192;2022-11-20T11:20:23;7.20;99.90
569;DHT22;269;48.884;9.192;2022-11-20T11:22:52;7.20;99.90
569;DHT22;269;48.884;9.192;2022-11-20T11:25:26;7.20;99.90
569;DHT22;269;48.884;9.192;2022-11-20T11:27:56;7.30;99.90
569;DHT22;269;48.884;9.192;2022-11-20T11:30:24;7.40;99.90
569;DHT22;269;48.884;9.192;2022-11-20T11:33:04;7.50;99.90
569;DHT22;269;48.884;9.192;2022-11-20T11:35:33;7.70;99.90
569;DHT22;269;48.884;9.192;2022-11-20T11:38:04;8.10;99.90
569;DHT22;269;48.884;9.192;2022-11-20T11:40:35;8.70;99.90
569;DHT22;269;48.884;9.192;2022-11-20T11:43:07;9.40;99.90
569;DHT22;269;48.884;9.192;2022-11-20T11:46:13;9.70;99.90
569;DHT22;269;48.884;9.192;2022-11-20T11:48:56;9.90;99.90
569;DHT22;269;48.884;9.192;2022-11-20T11:51:27;9.90;99.90
569;DHT22;269;48.884;9.192;2022-11-20T11:53:58;9.90;99.90
569;DHT22;269;48.884;9.192;2022-11-20T11:56:27;10.00;99.90
569;DHT22;269;48.884;9.192;2022-11-20T11:58:56;9.90;99.90
569;DHT22;269;48.884;9.192;2022-11-20T12:01:31;10.00;99.90
569;DHT22;269;48.884;9.192;2022-11-20T12:04:04;10.10;99.90
569;DHT22;269;48.884;9.192;2022-11-20T12:06:34;10.00;99.90
569;DHT22;269;48.884;9.192;2022-11-20T12:09:05;9.70;99.90
569;DHT22;269;48.884;9.192;2022-11-20T12:11:37;9.40;99.90
569;DHT22;269;48.884;9.192;2022-11-20T12:14:13;9.40;99.90
569;DHT22;269;48.884;9.192;2022-11-20T12:16:42;9.40;99.90
569;DHT22;269;48.884;9.192;2022-11-20T12:19:13;9.80;99.90
569;DHT22;269;48.884;9.192;2022-11-20T12:21:49;10.30;99.90
569;DHT22;269;48.884;9.192;2022-11-20T12:24:38;10.80;99.90
569;DHT22;269;48.884;9.192;2022-11-20T12:27:34;11.10;99.90
569;DHT22;269;48.884;9.192;2022-11-20T12:30:07;11.60;99.90
569;DHT22;269;48.884;9.192;2022-11-20T12:33:12;11.70;99.90
569;DHT22;269;48.884;9.192;2022-11-20T12:35:57;11.60;99.90
569;DHT22;269;48.884;9.192;2022-11-20T12:38:42;11.40;99.90
569;DHT22;269;48.884;9.192;2022-11-20T12:41:25;11.30;99.90
569;DHT22;269;48.884;9.192;2022-11-20T12:44:21;11.10;99.90
569;DHT22;269;48.884;9.192;2022-11-20T12:47:15;11.00;99.90
569;DHT22;269;48.884;9.192;2022-11-20T12:49:53;10.90;99.90
569;DHT22;269;48.884;9.192;2022-11-20T12:52:37;10.90;99.90
569;DHT22;269;48.884;9.192;2022-11-20T12:55:16;10.80;99.90
569;DHT22;269;48.884;9.192;2022-11-20T12:57:53;10.70;99.90
569;DHT22;269;48.884;9.192;2022-11-20T13:00:22;10.70;99.90
569;DHT22;269;48.884;9.192;2022-11-20T13:06:11;10.90;99.90
569;DHT22;269;48.884;9.192;2022-11-20T13:08:43;11.00;99.90
569;DHT22;269;48.884;9.192;2022-11-20T13:11:18;11.10;99.90
569;DHT22;269;48.884;9.192;2022-11-20T13:14:02;10.90;99.90
569;DHT22;269;48.884;9.192;2022-11-20T13:16:36;10.50;99.90
569;DHT22;269;48.884;9.192;2022-11-20T13:19:05;10.10;99.90
569;DHT22;269;48.884;9.192;2022-11-20T13:21:38;9.80;99.90
569;DHT22;269;48.884;9.192;2022-11-20T13:24:19;9.70;99.90
569;DHT22;269;48.884;9.192;2022-11-20T13:27:00;9.80;99.90
569;DHT22;269;48.884;9.192;2022-11-20T13:29:28;10.00;99.90
569;DHT22;269;48.884;9.192;2022-11-20T13:32:06;10.10;99.90
569;DHT22;269;48.884;9.192;2022-11-20T13:34:34;10.20;99.90
569;DHT22;269;48.884;9.192;2022-11-20T13:37:02;10.20;99.90
569;DHT22;269;48.884;9.192;2022-11-20T13:39:33;10.20;99.90
569;DHT22;269;48.884;9.192;2022-11-20T13:42:18;10.30;99.90
569;DHT22;269;48.884;9.192;2022-11-20T13:44:50;10.40;99.90
569;DHT22;269;48.884;9.192;2022-11-20T13:47:21;10.50;99.90
569;DHT22;269;48.884;9.192;2022-11-20T13:49:49;10.50;99.90
569;DHT22;269;48.884;9.192;2022-11-20T13:52:37;10.50;99.90
569;DHT22;269;48.884;9.192;2022-11-20T13:55:17;10.20;99.90
569;DHT22;269;48.884;9.192;2022-11-20T13:58:10;9.90;99.90
569;DHT22;269;48.884;9.192;2022-11-20T14:00:50;9.70;99.90
569;DHT22;269;48.884;9.192;2022-11-20T14:03:21;9.60;99.90
569;DHT22;269;48.884;9.192;2022-11-20T14:05:53;9.60;99.90
569;DHT22;269;48.884;9.192;2022-11-20T14:08:32;9.50;99.90
569;DHT22;269;48.884;9.192;2022-11-20T14:11:11;9.50;99.90
569;DHT22;269;48.884;9.192;2022-11-20T14:13:55;9.50;99.90
569;DHT22;269;48.884;9.192;2022-11-20T14:16:24;9.40;99.90
569;DHT22;269;48.884;9.192;2022-11-20T14:18:52;9.30;99.90
569;DHT22;269;48.884;9.192;2022-11-20T14:21:26;9.10;99.90
569;DHT22;269;48.884;9.192;2022-11-20T14:24:03;9.10;99.90
569;DHT22;269;48.884;9.192;2022-11-20T14:26:33;9.10;99.90
569;DHT22;269;48.884;9.192;2022-11-20T14:29:03;9.10;99.90
569;DHT22;269;48.884;9.192;2022-11-20T14:31:30;9.10;99.90
569;DHT22;269;48.884;9.192;2022-11-20T14:33:57;9.00;99.90
569;DHT22;269;48.884;9.192;2022-11-20T14:36:25;9.00;99.90
569;DHT22;269;48.884;9.192;2022-11-20T14:38:53;8.90;99.90
569;DHT22;269;48.884;9.192;2022-11-20T14:41:22;8.80;99.90
569;DHT22;269;48.884;9.192;2022-11-20T14:43:54;8.80;99.90
569;DHT22;269;48.884;9.192;2022-11-20T14:46:23;8.70;99.90
569;DHT22;269;48.884;9.192;2022-11-20T14:48:53;8.60;99.90
569;DHT22;269;48.884;9.192;2022-11-20T14:51:31;8.60;99.90
569;DHT22;269;48.884;9.192;2022-11-20T14:54:12;8.50;99.90
569;DHT22;269;48.884;9.192;2022-11-20T14:56:40;8.50;99.90
569;DHT22;269;48.884;9.192;2022-11-20T14:59:09;8.40;99.90
569;DHT22;269;48.884;9.192;2022-11-20T15:01:37;8.40;99.90
569;DHT22;269;48.884;9.192;2022-11-20T15:04:06;8.40;99.90
569;DHT22;269;48.884;9.192;2022-11-20T15:06:36;8.40;99.90
569;DHT22;269;48.884;9.192;2022-11-20T15:09:12;8.40;99.90
569;DHT22;269;48.884;9.192;2022-11-20T15:11:52;8.40;99.90
569;DHT22;269;48.884;9.192;2022-11-20T15:14:21;8.40;99.90
569;DHT22;269;48.884;9.192;2022-11-20T15:16:49;8.30;99.90
569;DHT22;269;48.884;9.192;2022-11-20T15:19:18;8.20;99.90
569;DHT22;269;48.884;9.192;2022-11-20T15:21:46;8.20;99.90
569;DHT22;269;48.884;9.192;2022-11-20T15:24:13;8.20;99.90
569;DHT22;269;48.884;9.192;2022-11-20T15:26:41;8.00;99.90
569;DHT22;269;48.884;9.192;2022-11-20T15:29:10;8.00;99.90
569;DHT22;269;48.884;9.192;2022-11-20T15:31:39;7.90;99.90
569;DHT22;269;48.884;9.192;2022-11-20T15:34:10;7.90;99.90
569;DHT22;269;48.884;9.192;2022-11-20T15:36:39;7.80;99.90
569;DHT22;269;48.884;9.192;2022-11-20T15:39:06;7.80;99.90
569;DHT22;269;48.884;9.192;2022-11-20T15:41:34;7.70;99.90
569;DHT22;269;48.884;9.192;2022-11-20T15:44:01;7.60;99.90
569;DHT22;269;48.884;9.192;2022-11-20T15:46:31;7.60;99.90
569;DHT22;269;48.884;9.192;2022-11-20T15:49:06;7.50;99.90
569;DHT22;269;48.884;9.192;2022-11-20T15:51:38;7.50;99.90
569;DHT22;269;48.884;9.192;2022-11-20T15:54:11;7.30;99.90
569;DHT22;269;48.884;9.192;2022-11-20T15:56:38;7.40;99.90
569;DHT22;269;48.884;9.192;2022-11-20T15:59:05;7.40;99.90
569;DHT22;269;48.884;9.192;2022-11-20T16:01:33;7.40;99.90
569;DHT22;269;48.884;9.192;2022-11-20T16:04:01;7.30;99.90
569;DHT22;269;48.884;9.192;2022-11-20T16:06:29;7.30;99.90
569;DHT22;269;48.884;9.192;2022-11-20T16:08:56;7.30;99.90
569;DHT22;269;48.884;9.192;2022-11-20T16:11:24;7.30;99.90
569;DHT22;269;48.884;9.192;2022-11-20T16:13:51;7.30;99.90
569;DHT22;269;48.884;9.192;2022-11-20T16:16:37;7.30;99.90
569;DHT22;269;48.884;9.192;2022-11-20T16:19:09;7.30;99.90
569;DHT22;269;48.884;9.192;2022-11-20T16:21:38;7.30;99.90
569;DHT22;269;48.884;9.192;2022-11-20T16:24:08;7.30;99.90
569;DHT22;269;48.884;9.192;2022-11-20T16:26:37;7.20;99.90
569;DHT22;269;48.884;9.192;2022-11-20T16:29:06;7.20;99.90
569;DHT22;269;48.884;9.192;2022-11-20T16:31:33;7.20;99.90
569;DHT22;269;48.884;9.192;2022-11-20T16:34:03;7.20;99.90
569;DHT22;269;48.884;9.192;2022-11-20T16:36:30;7.20;99.90
569;DHT22;269;48.884;9.192;2022-11-20T16:39:00;7.10;99.90
569;DHT22;269;48.884;9.192;2022-11-20T16:41:29;7.20;99.90
569;DHT22;269;48.884;9.192;2022-11-20T16:43:58;7.20;99.90
569;DHT22;269;48.884;9.192;2022-11-20T16:46:27;7.10;99.90
569;DHT22;269;48.884;9.192;2022-11-20T16:48:57;7.10;99.90
569;DHT22;269;48.884;9.192;2022-11-20T16:51:26;7.10;99.90
569;DHT22;269;48.884;9.192;2022-11-20T16:53:54;7.10;99.90
569;DHT22;269;48.884;9.192;2022-11-20T16:56:25;7.10;99.90
569;DHT22;269;48.884;9.192;2022-11-20T16:58:56;7.10;99.90
569;DHT22;269;48.884;9.192;2022-11-20T17:01:24;7.10;99.90
569;DHT22;269;48.884;9.192;2022-11-20T17:03:54;7.10;99.90
569;DHT22;269;48.884;9.192;2022-11-20T17:06:24;7.10;99.90
569;DHT22;269;48.884;9.192;2022-11-20T17:08:52;7.10;99.90
569;DHT22;269;48.884;9.192;2022-11-20T17:11:21;7.10;99.90
569;DHT22;269;48.884;9.192;2022-11-20T17:13:51;7.20;99.90
569;DHT22;269;48.884;9.192;2022-11-20T17:16:21;7.10;99.90